SBSM/RIA METAR and TAF weather

Enter ICAO airport designator
Station Type Date Time Source
SBSM METAR 2022/12/04 12:00 UTC NOAA

SBSM 041200Z VRB02KT 9999 SCT005 OVC007 24/23 Q1009


Station Type Date Time Source
SBSM Decoded METAR 2022/12/04 12:00 UTC NOAA

Santa Maria Aero-Porto , Brazil (SBSM) 29-43S 053-42W
Dec 04, 2022 - 07:00 AM EST / 2022.12.04 1200 UTC
Wind: Variable at 2 MPH (2 KT):0
Visibility: greater than 7 mile(s):0
Sky conditions: overcast
Temperature: 75 F (24 C)
Dew Point: 73 F (23 C)
Relative Humidity: 94%
Pressure (altimeter): 29.80 in. Hg (1009 hPa)
ob: SBSM 041200Z VRB02KT 9999 SCT005 OVC007 24/23 Q1009
cycle: 12

Station Type Date Time Source
SBSM TAF 2022/12/04 06:33 UTC NOAA

TAF SBSM 040300Z 0406/0418 12005KT 9999 BKN008 TN22/0409Z TX28/0418Z
BECMG 0412/0414 SCT020 FEW025TCU
TEMPO 0415/0418 4000 TSRA BKN020 FEW030CB
RMK PDZ

Example: see airport list